Time;durP1;ratioP1;P1;durP2;ratioP2;P2;SDS_P1;SDS_P2;PMS_P1;PMS_P2;Temp;Humidity;BMP_temperature;BMP_pressure;BME280_temperature;BME280_humidity;BME280_pressure;Samples;Min_cycle;Max_cycle;Signal;HPM_P1;HPM_P2
2022/12/07 00:02:44;;;;;;;1.20;0.70;;;;;;;19.48;50.57;96486.47;13225520;22;20018;-48
2022/12/07 00:08:04;;;;;;;1.10;0.68;;;;;;;19.47;50.52;96493.00;13249132;22;20017;-47
2022/12/07 00:13:23;;;;;;;2.08;0.80;;;;;;;19.46;50.59;96474.41;13249342;22;20379;-46
2022/12/07 00:18:43;;;;;;;2.78;0.70;;;;;;;19.45;50.65;96472.84;13249151;22;20085;-47
2022/12/07 00:24:04;;;;;;;0.90;0.73;;;;;;;19.44;50.55;96479.34;13249153;22;20017;-48
2022/12/07 00:29:24;;;;;;;1.17;0.70;;;;;;;19.42;50.54;96479.69;13270467;22;20014;-49
2022/12/07 00:34:43;;;;;;;1.33;0.70;;;;;;;19.41;50.63;96471.94;13248690;22;20070;-47
2022/12/07 00:40:04;;;;;;;1.20;0.70;;;;;;;19.41;50.53;96475.41;13248022;22;20018;-47
2022/12/07 00:45:23;;;;;;;1.63;0.93;;;;;;;19.40;50.69;96465.72;13270022;22;20017;-46
2022/12/07 00:50:43;;;;;;;0.88;0.70;;;;;;;19.38;50.59;96470.66;13248680;22;20066;-47
2022/12/07 00:56:17;;;;;;;1.13;0.70;;;;;;;19.36;50.65;96473.69;13269302;22;20448;-47
2022/12/07 01:01:36;;;;;;;1.33;0.73;;;;;;;19.34;50.65;96473.22;13247686;22;20025;-48
2022/12/07 01:06:56;;;;;;;1.20;0.90;;;;;;;19.35;50.68;96479.44;13248017;22;20014;-47
2022/12/07 01:12:15;;;;;;;1.08;0.70;;;;;;;19.33;50.62;96478.97;13247846;22;20018;-46
2022/12/07 01:17:35;;;;;;;2.38;0.70;;;;;;;19.32;50.74;96482.78;13269284;22;20021;-47
2022/12/07 01:22:54;;;;;;;0.77;0.65;;;;;;;19.29;50.60;96478.84;13247012;22;20017;-50
2022/12/07 01:28:13;;;;;;;1.42;0.70;;;;;;;19.29;50.60;96480.75;13269267;22;20014;-48
2022/12/07 01:33:35;;;;;;;1.13;0.65;;;;;;;19.27;50.58;96478.38;13247467;22;20348;-47
2022/12/07 01:38:57;;;;;;;1.25;0.77;;;;;;;19.26;50.68;96473.31;13268913;22;20021;-48
2022/12/07 01:44:22;;;;;;;1.00;0.65;;;;;;;19.25;50.62;96477.09;13246651;22;20467;-48
2022/12/07 01:49:44;;;;;;;0.98;0.73;;;;;;;19.24;50.60;96462.03;13268723;22;20010;-49
2022/12/07 01:55:06;;;;;;;1.08;0.60;;;;;;;19.24;50.51;96467.44;13223058;22;20021;-48
2022/12/07 02:00:26;;;;;;;1.10;0.60;;;;;;;19.22;50.59;96464.28;13223310;22;20018;-47
2022/12/07 02:05:46;;;;;;;0.90;0.70;;;;;;;19.21;50.62;96462.69;13246609;22;20020;-48
2022/12/07 02:11:07;;;;;;;1.10;0.70;;;;;;;19.19;50.39;96454.94;13222975;22;20018;-48
2022/12/07 02:16:45;;;;;;;0.70;0.65;;;;;;;19.17;50.41;96457.19;13223073;22;20017;-46
2022/12/07 02:22:29;;;;;;;0.70;0.70;;;;;;;19.16;50.41;96455.59;13246641;22;20029;-46
2022/12/07 02:28:44;;;;;;;1.30;0.70;;;;;;;19.15;50.29;96462.91;13246565;22;20010;-46
2022/12/07 02:34:20;;;;;;;0.70;0.65;;;;;;;19.14;50.08;96463.22;13106713;22;20346;-47
2022/12/07 02:39:48;;;;;;;0.85;0.70;;;;;;;19.13;50.23;96467.84;13222918;22;20021;-51
2022/12/07 02:45:10;;;;;;;0.75;0.60;;;;;;;19.11;50.19;96459.28;13222828;22;20021;-48
2022/12/07 02:50:30;;;;;;;1.05;0.50;;;;;;;19.10;50.20;96465.00;13246184;22;20357;-46
2022/12/07 02:55:49;;;;;;;0.70;0.60;;;;;;;19.08;50.20;96457.22;13245784;22;20033;-46
2022/12/07 03:01:33;;;;;;;0.77;0.60;;;;;;;19.08;50.11;96448.34;13246363;22;20021;-46
2022/12/07 03:07:00;;;;;;;0.63;0.60;;;;;;;19.07;50.14;96452.16;13246051;22;20010;-47
2022/12/07 03:12:24;;;;;;;0.60;0.55;;;;;;;19.04;50.19;96440.13;13246378;22;20025;-45
2022/12/07 03:17:45;;;;;;;0.80;0.60;;;;;;;19.04;50.13;96436.63;13246305;22;20014;-47
2022/12/07 03:23:06;;;;;;;0.63;0.60;;;;;;;19.02;50.12;96431.56;13226050;22;20449;-47
2022/12/07 03:28:31;;;;;;;1.13;0.60;;;;;;;19.01;50.32;96429.97;13271521;22;20013;-46
2022/12/07 03:34:06;;;;;;;0.50;0.50;;;;;;;19.00;50.14;96427.63;13250099;22;20018;-47
2022/12/07 03:39:39;;;;;;;0.77;0.60;;;;;;;18.98;50.13;96425.22;13250007;22;20039;-47
2022/12/07 03:45:01;;;;;;;1.00;0.70;;;;;;;18.97;50.13;96418.25;13271209;22;20010;-48
2022/12/07 03:50:44;;;;;;;0.60;0.60;;;;;;;18.96;50.04;96408.59;13271092;22;20009;-47
2022/12/07 03:56:04;;;;;;;0.50;0.50;;;;;;;18.95;50.04;96406.97;13224469;22;20453;-46
2022/12/07 04:01:24;;;;;;;0.50;0.50;;;;;;;18.94;50.05;96405.41;13249607;22;20021;-46
2022/12/07 04:06:44;;;;;;;0.70;0.60;;;;;;;18.92;50.14;96403.03;13249390;22;20063;-48
2022/12/07 04:12:03;;;;;;;0.85;0.63;;;;;;;18.90;50.11;96407.19;13270983;22;20013;-46
2022/12/07 04:17:23;;;;;;;0.88;0.50;;;;;;;18.89;50.10;96397.50;13270964;22;20014;-48
2022/12/07 04:22:42;;;;;;;0.40;0.40;;;;;;;18.88;50.10;96396.72;13249201;22;20040;-46
2022/12/07 04:28:01;;;;;;;0.70;0.60;;;;;;;18.88;50.02;96401.34;13248204;22;20011;-49
2022/12/07 04:33:21;;;;;;;0.40;0.40;;;;;;;18.86;50.03;96395.47;13248214;22;20037;-47
2022/12/07 04:38:40;;;;;;;0.55;0.43;;;;;;;18.84;49.92;96393.09;13248095;22;20468;-48
2022/12/07 04:44:02;;;;;;;0.60;0.60;;;;;;;18.83;49.97;96393.44;13248700;22;20375;-47
2022/12/07 04:49:21;;;;;;;0.88;0.60;;;;;;;18.82;49.99;96402.63;13248578;22;20018;-46
2022/12/07 04:54:41;;;;;;;0.50;0.50;;;;;;;18.78;49.96;96392.47;13248212;22;20014;-49
2022/12/07 05:00:00;;;;;;;0.55;0.55;;;;;;;18.78;49.83;96397.09;13248589;22;20322;-48
2022/12/07 05:05:20;;;;;;;0.75;0.68;;;;;;;18.76;49.95;96389.31;13248030;22;20018;-49
2022/12/07 05:10:40;;;;;;;0.57;0.50;;;;;;;18.74;50.09;96391.56;13269480;22;20018;-47
2022/12/07 05:15:59;;;;;;;0.82;0.70;;;;;;;18.76;50.15;96394.72;13247469;22;20014;-47
2022/12/07 05:21:19;;;;;;;0.47;0.47;;;;;;;18.76;50.45;96383.16;13247782;22;20063;-46
2022/12/07 05:26:38;;;;;;;0.77;0.50;;;;;;;18.74;50.64;96388.88;13247802;22;20010;-48
2022/12/07 05:31:58;;;;;;;0.52;0.50;;;;;;;18.75;50.71;96395.81;13246865;22;20449;-45
2022/12/07 05:37:17;;;;;;;0.43;0.43;;;;;;;18.75;50.65;96393.13;13247645;22;20010;-46
2022/12/07 05:42:37;;;;;;;0.50;0.50;;;;;;;18.77;50.63;96387.41;13246434;22;20449;-47
2022/12/07 05:47:56;;;;;;;0.93;0.60;;;;;;;18.79;50.63;96385.16;13268845;22;20021;-48
2022/12/07 05:53:16;;;;;;;0.65;0.50;;;;;;;18.79;50.79;96382.47;13247267;22;20086;-46
2022/12/07 06:04:14;;;;;;;1.60;0.55;;;;;;;18.83;50.81;96388.03;13268300;22;20010;-45
2022/12/07 06:09:34;;;;;;;0.60;0.60;;;;;;;18.84;50.89;96385.00;13247035;22;20014;-49
2022/12/07 06:14:54;;;;;;;5.75;1.50;;;;;;;18.86;50.85;96392.78;13246980;22;20013;-46
2022/12/07 06:20:13;;;;;;;6.05;1.50;;;;;;;18.88;50.78;96387.84;13245873;22;20018;-48
2022/12/07 06:25:32;;;;;;;6.10;1.65;;;;;;;18.90;50.86;96385.59;13268254;22;20034;-46
2022/12/07 06:31:03;;;;;;;3.47;1.60;;;;;;;18.90;50.92;96375.59;13246031;22;20043;-46
2022/12/07 06:36:22;;;;;;;5.88;1.75;;;;;;;18.94;50.78;96378.44;13246396;22;20039;-47
2022/12/07 06:41:41;;;;;;;6.55;1.98;;;;;;;18.96;50.82;96387.00;13246350;22;20018;-47
2022/12/07 06:47:02;;;;;;;6.05;1.80;;;;;;;18.98;50.78;96390.16;13246102;22;20014;-46
2022/12/07 06:52:21;;;;;;;6.50;1.90;;;;;;;18.99;50.86;96389.00;13246209;22;20529;-46
2022/12/07 06:57:41;;;;;;;6.45;1.80;;;;;;;19.02;50.70;96391.06;13250087;22;20025;-46
2022/12/07 07:03:01;;;;;;;6.68;1.75;;;;;;;19.06;50.66;96393.91;13250837;22;20025;-46
2022/12/07 07:08:20;;;;;;;7.32;1.92;;;;;;;19.07;50.61;96393.56;13249633;22;20473;-47
2022/12/07 07:13:40;;;;;;;4.97;2.00;;;;;;;19.09;50.62;96396.72;13250516;22;20018;-47
2022/12/07 07:18:59;;;;;;;5.15;1.77;;;;;;;19.12;50.57;96393.34;13250753;22;20071;-48
2022/12/07 07:24:18;;;;;;;5.72;2.00;;;;;;;19.16;50.60;96407.75;13250142;22;20010;-46
2022/12/07 07:29:38;;;;;;;6.45;2.10;;;;;;;19.18;50.29;96402.03;13271776;22;20337;-46
2022/12/07 07:34:57;;;;;;;5.65;1.92;;;;;;;19.21;50.30;96400.59;13250113;22;20013;-49
2022/12/07 07:40:17;;;;;;;5.50;1.98;;;;;;;19.23;50.31;96401.84;13269789;22;20014;-48
2022/12/07 07:45:36;;;;;;;5.72;1.90;;;;;;;19.26;50.28;96409.28;13249801;22;20010;-46
2022/12/07 07:50:56;;;;;;;5.68;2.00;;;;;;;19.29;50.16;96407.84;13247456;22;20013;-48
2022/12/07 07:56:15;;;;;;;4.85;2.13;;;;;;;19.32;50.13;96409.88;13270625;22;20014;-49
2022/12/07 08:01:34;;;;;;;7.18;2.10;;;;;;;19.35;50.11;96420.00;13269121;22;20009;-47
2022/12/07 08:06:54;;;;;;;3.72;2.00;;;;;;;19.39;49.97;96410.13;13248388;22;20017;-48
2022/12/07 08:12:13;;;;;;;6.50;2.00;;;;;;;19.41;50.01;96418.69;13245511;22;20400;-47
2022/12/07 08:17:33;;;;;;;4.22;1.90;;;;;;;19.44;49.88;96422.63;13249364;22;20021;-46
2022/12/07 08:22:52;;;;;;;3.03;1.63;;;;;;;19.48;49.91;96412.72;13249603;22;20383;-48
2022/12/07 08:28:11;;;;;;;5.05;1.80;;;;;;;19.50;49.66;96410.47;13249212;22;20013;-48
2022/12/07 08:33:32;;;;;;;4.82;1.80;;;;;;;19.52;49.75;96417.16;13248100;22;20525;-46
2022/12/07 08:38:51;;;;;;;4.35;1.70;;;;;;;19.54;49.65;96414.91;13249116;22;20017;-48
2022/12/07 08:44:10;;;;;;;4.13;1.65;;;;;;;19.57;49.49;96421.53;13248836;22;20022;-48
2022/12/07 08:49:50;;;;;;;4.35;1.80;;;;;;;19.61;49.47;96421.69;13269901;22;20013;-47
2022/12/07 08:55:11;;;;;;;4.07;1.80;;;;;;;19.63;49.35;96419.44;13270083;22;20395;-49
2022/12/07 09:00:30;;;;;;;4.70;2.08;;;;;;;19.67;49.45;96423.03;13223730;22;20018;-49
2022/12/07 09:05:50;;;;;;;3.28;1.65;;;;;;;19.70;49.43;96425.09;13269464;22;20020;-48
2022/12/07 09:11:09;;;;;;;3.45;1.33;;;;;;;19.71;49.25;96419.34;13248271;22;20025;-49
2022/12/07 09:16:28;;;;;;;3.97;1.55;;;;;;;19.74;49.45;96418.69;13247281;22;20013;-47
2022/12/07 09:21:48;;;;;;;2.72;1.60;;;;;;;19.77;49.32;96408.34;13248089;22;20017;-46
2022/12/07 09:27:07;;;;;;;3.60;1.60;;;;;;;19.78;49.39;96416.13;13247872;22;20022;-47
2022/12/07 09:32:26;;;;;;;3.45;1.40;;;;;;;19.82;49.30;96422.44;13247815;22;20025;-47
2022/12/07 09:37:46;;;;;;;2.63;1.13;;;;;;;19.85;49.27;96412.88;13224068;22;20009;-47
2022/12/07 09:43:12;;;;;;;3.65;1.50;;;;;;;19.87;49.32;96410.59;13268822;22;20017;-47
2022/12/07 09:48:36;;;;;;;3.10;1.42;;;;;;;19.90;49.13;96409.94;13247654;22;20010;-48
2022/12/07 09:53:56;;;;;;;2.10;1.27;;;;;;;19.92;49.17;96405.78;13224195;22;20017;-47
2022/12/07 09:59:19;;;;;;;2.03;1.30;;;;;;;19.95;49.00;96404.31;13223765;22;20014;-47
2022/12/07 10:04:39;;;;;;;2.60;1.42;;;;;;;19.97;49.13;96407.47;13247142;22;20013;-48
2022/12/07 10:09:59;;;;;;;2.83;1.33;;;;;;;20.00;48.96;96411.44;13246809;22;20013;-47
2022/12/07 10:15:18;;;;;;;2.05;1.10;;;;;;;20.02;48.79;96409.19;13246929;22;20014;-47
2022/12/07 10:20:38;;;;;;;2.00;1.20;;;;;;;20.03;48.59;96405.34;13268200;22;20018;-46
2022/12/07 10:25:57;;;;;;;2.10;1.10;;;;;;;20.05;48.73;96389.56;13246819;22;20014;-47
2022/12/07 10:31:19;;;;;;;2.90;1.92;;;;;;;20.06;45.24;96391.16;13221736;22;20506;-47
2022/12/07 10:36:38;;;;;;;1.90;1.20;;;;;;;20.08;47.10;96391.59;13268044;22;20074;-46
2022/12/07 10:42:00;;;;;;;2.53;1.23;;;;;;;20.09;47.20;96393.16;13246587;22;20075;-46
2022/12/07 10:47:36;;;;;;;1.98;1.30;;;;;;;20.11;47.16;96396.31;13222822;22;20025;-48
2022/12/07 10:52:59;;;;;;;3.55;1.30;;;;;;;20.14;47.12;96391.03;13245855;22;20027;-48
2022/12/07 10:58:30;;;;;;;3.10;1.20;;;;;;;20.15;47.18;96389.91;13245173;22;20025;-48
2022/12/07 11:04:10;;;;;;;2.15;1.20;;;;;;;20.18;47.13;96384.97;13246459;22;20025;-46
2022/12/07 11:09:49;;;;;;;2.05;1.10;;;;;;;20.20;47.12;96388.13;13267793;22;20017;-47
2022/12/07 11:15:26;;;;;;;1.90;1.17;;;;;;;20.22;47.23;96380.44;13222560;22;20083;-46
2022/12/07 11:20:50;;;;;;;1.58;1.02;;;;;;;20.24;47.12;96370.88;13243788;22;20338;-46
2022/12/07 11:26:16;;;;;;;2.65;1.25;;;;;;;20.24;47.37;96359.25;13246213;22;20022;-46
2022/12/07 11:31:59;;;;;;;1.50;1.00;;;;;;;20.27;47.29;96345.84;13246057;22;20018;-48
2022/12/07 11:37:29;;;;;;;2.00;1.00;;;;;;;20.30;47.15;96349.78;13267545;22;20014;-47
2022/12/07 11:42:53;;;;;;;2.10;1.13;;;;;;;20.31;47.36;96352.16;13270787;22;20017;-46
2022/12/07 11:48:24;;;;;;;2.10;1.02;;;;;;;20.32;47.32;96337.50;13247542;22;20048;-46
2022/12/07 11:53:57;;;;;;;2.42;1.00;;;;;;;20.35;47.25;96344.94;13271355;22;20345;-47
2022/12/07 11:59:21;;;;;;;1.75;1.10;;;;;;;20.38;47.40;96338.06;13249191;22;20017;-48
2022/12/07 12:04:49;;;;;;;1.73;1.00;;;;;;;20.39;47.23;96328.81;13249616;22;20029;-47
2022/12/07 12:10:26;;;;;;;1.53;1.10;;;;;;;20.40;47.40;96324.97;13225249;22;20456;-48
2022/12/07 12:16:07;;;;;;;1.33;1.10;;;;;;;20.41;47.40;96331.97;13249466;22;20021;-46
2022/12/07 12:21:29;;;;;;;1.30;0.80;;;;;;;20.44;47.50;96327.78;13270394;22;20014;-48
2022/12/07 12:26:59;;;;;;;2.45;1.20;;;;;;;20.45;47.61;96319.34;13249402;22;20014;-47
2022/12/07 12:32:31;;;;;;;2.00;1.00;;;;;;;20.47;47.33;96310.88;13247019;22;20380;-47
2022/12/07 12:37:53;;;;;;;1.27;0.90;;;;;;;20.47;47.45;96321.72;13248881;22;20330;-48
2022/12/07 12:43:48;;;;;;;1.30;1.00;;;;;;;20.48;47.30;96315.97;13248987;22;20025;-47
2022/12/07 12:49:28;;;;;;;1.10;1.00;;;;;;;20.48;47.27;96318.66;13136381;22;20013;-47
2022/12/07 12:55:06;;;;;;;1.90;0.93;;;;;;;20.49;47.11;96316.75;13188628;22;20042;-47
2022/12/07 13:00:28;;;;;;;1.25;0.93;;;;;;;20.48;47.52;96313.25;13269945;22;20440;-45
2022/12/07 13:05:48;;;;;;;1.27;1.00;;;;;;;20.49;47.60;96319.44;13225185;22;20020;-47
2022/12/07 13:11:27;;;;;;;1.10;1.00;;;;;;;20.49;47.45;96314.03;13245769;22;20016;-46
2022/12/07 13:16:47;;;;;;;1.17;0.98;;;;;;;20.47;47.50;96321.72;13223800;22;20014;-48
2022/12/07 13:22:31;;;;;;;1.00;0.85;;;;;;;20.47;47.60;96321.72;13248101;22;20014;-45
2022/12/07 13:27:57;;;;;;;1.42;0.90;;;;;;;20.45;47.47;96321.25;13247681;22;20017;-47
2022/12/07 13:33:18;;;;;;;1.30;0.90;;;;;;;20.45;47.59;96334.78;13223598;22;20014;-47
2022/12/07 13:38:38;;;;;;;0.90;0.70;;;;;;;20.44;47.53;96327.78;13245792;22;20465;-46
2022/12/07 13:44:17;;;;;;;1.38;1.00;;;;;;;20.43;47.54;96337.03;13247687;22;20040;-47
2022/12/07 13:49:45;;;;;;;1.58;0.90;;;;;;;20.44;47.50;96327.78;13247394;22;20017;-46
2022/12/07 13:55:05;;;;;;;1.00;0.80;;;;;;;20.43;47.43;96326.22;13223395;22;20055;-49
2022/12/07 14:00:26;;;;;;;1.00;0.80;;;;;;;20.41;47.58;96323.06;13247216;22;20014;-48
2022/12/07 14:05:46;;;;;;;1.40;0.85;;;;;;;20.40;47.55;96319.56;13223408;22;20014;-46
2022/12/07 14:11:07;;;;;;;0.90;0.77;;;;;;;20.40;47.53;96324.19;13246994;22;20013;-46
2022/12/07 14:16:30;;;;;;;7.47;1.52;;;;;;;20.39;48.08;96318.00;13223081;22;20078;-51
2022/12/07 14:22:06;;;;;;;2.83;1.20;;;;;;;20.40;48.50;96321.47;13246625;22;20075;-50
2022/12/07 14:27:33;;;;;;;2.03;1.02;;;;;;;20.38;48.60;96312.91;13268190;22;20017;-47
2022/12/07 14:33:01;;;;;;;1.42;1.15;;;;;;;20.36;48.69;96321.38;13268081;22;20013;-49
2022/12/07 14:38:21;;;;;;;2.28;1.05;;;;;;;20.34;48.45;96318.22;13223190;22;20014;-48
2022/12/07 14:43:41;;;;;;;1.80;0.90;;;;;;;20.32;48.66;96317.78;13246715;22;20025;-46
2022/12/07 14:49:00;;;;;;;2.38;1.20;;;;;;;20.31;48.61;96314.28;13267526;22;20018;-46
2022/12/07 14:54:20;;;;;;;1.35;0.85;;;;;;;20.30;48.46;96312.69;13246303;22;20025;-45
2022/12/07 14:59:40;;;;;;;1.95;0.90;;;;;;;20.28;48.49;96304.13;13222725;22;20383;-47
2022/12/07 15:04:59;;;;;;;1.67;0.80;;;;;;;20.26;48.45;96306.41;13246355;22;20014;-46
2022/12/07 15:10:29;;;;;;;10.38;1.02;;;;;;;20.26;48.37;96306.41;13246395;22;20334;-46
2022/12/07 15:15:51;;;;;;;2.45;0.82;;;;;;;20.24;48.40;96305.94;13248105;22;20010;-48
2022/12/07 15:21:14;;;;;;;1.13;0.80;;;;;;;20.24;48.42;96303.25;13226052;22;20468;-46
2022/12/07 15:26:34;;;;;;;2.88;0.95;;;;;;;20.22;48.29;96304.72;13249528;22;20052;-49
2022/12/07 15:31:53;;;;;;;1.27;0.90;;;;;;;20.20;48.34;96307.75;13250351;22;20026;-48
2022/12/07 15:37:13;;;;;;;1.60;0.80;;;;;;;20.18;48.30;96298.41;13250450;22;20009;-46
2022/12/07 15:42:32;;;;;;;1.00;0.75;;;;;;;20.18;48.31;96304.59;13249976;22;20065;-46
2022/12/07 15:47:51;;;;;;;1.92;1.00;;;;;;;20.15;48.20;96299.91;13271273;22;20010;-48
2022/12/07 15:53:11;;;;;;;1.75;0.73;;;;;;;20.13;48.26;96307.53;13250019;22;20078;-49
2022/12/07 15:58:31;;;;;;;1.73;1.00;;;;;;;20.12;48.28;96305.97;13249125;22;20083;-46
2022/12/07 16:03:50;;;;;;;4.00;1.40;;;;;;;20.10;48.25;96310.94;13249974;22;20018;-46
2022/12/07 16:09:10;;;;;;;2.08;1.27;;;;;;;20.08;48.24;96311.25;13249575;22;20021;-48
2022/12/07 16:14:31;;;;;;;3.63;1.30;;;;;;;20.07;48.30;96312.41;13249646;22;20043;-49
2022/12/07 16:19:53;;;;;;;4.00;1.40;;;;;;;20.05;48.25;96309.25;13270594;22;20028;-48
2022/12/07 16:25:12;;;;;;;3.50;1.60;;;;;;;20.02;48.34;96299.09;13249014;22;20059;-48
2022/12/07 16:30:32;;;;;;;4.55;1.70;;;;;;;20.02;48.29;96307.22;13249083;22;20070;-49
2022/12/07 16:35:52;;;;;;;4.20;1.80;;;;;;;20.01;48.28;96310.25;13249210;22;20379;-47
2022/12/07 16:41:11;;;;;;;3.83;1.80;;;;;;;19.98;48.28;96300.91;13248828;22;20025;-48
2022/12/07 16:46:35;;;;;;;6.20;1.63;;;;;;;19.97;48.19;96307.44;13247725;22;20372;-46
2022/12/07 16:51:57;;;;;;;5.63;1.70;;;;;;;19.97;48.12;96306.66;13209854;22;20046;-49
2022/12/07 16:57:16;;;;;;;5.85;1.55;;;;;;;19.95;48.31;96305.09;13236851;22;20105;-46
2022/12/07 17:02:36;;;;;;;12.60;4.82;;;;;;;19.95;48.28;96315.09;13247966;22;20086;-53
2022/12/07 17:07:55;;;;;;;13.55;4.10;;;;;;;19.94;48.67;96316.22;13269336;22;20014;-52
2022/12/07 17:18:54;;;;;;;7.25;3.20;;;;;;;19.93;49.73;96320.84;13269120;22;20322;-45
2022/12/07 17:24:15;;;;;;;6.43;3.08;;;;;;;19.94;50.07;96313.53;13247519;22;20097;-43
2022/12/07 17:29:35;;;;;;;6.07;2.50;;;;;;;19.93;50.41;96312.75;13247423;22;20035;-44
2022/12/07 17:34:54;;;;;;;4.45;2.70;;;;;;;19.93;50.56;96320.06;13268731;22;20014;-44
2022/12/07 17:40:14;;;;;;;5.13;2.45;;;;;;;19.92;50.81;96319.28;13247223;22;20436;-43
2022/12/07 17:45:36;;;;;;;5.57;2.40;;;;;;;19.91;50.77;96311.50;13247112;22;20039;-46
2022/12/07 17:56:37;;;;;;;3.70;2.10;;;;;;;19.88;50.81;96315.66;13246468;22;20014;-45
2022/12/07 18:01:57;;;;;;;6.90;2.42;;;;;;;19.87;50.53;96310.59;13268488;22;20010;-46
2022/12/07 18:07:18;;;;;;;7.40;2.17;;;;;;;19.85;50.31;96310.91;13246823;22;20329;-46
2022/12/07 18:12:39;;;;;;;3.10;2.17;;;;;;;19.85;50.21;96315.56;13246965;22;20021;-45
2022/12/07 18:17:58;;;;;;;4.75;2.33;;;;;;;19.81;50.29;96318.13;13268358;22;20018;-46
2022/12/07 18:23:19;;;;;;;4.80;2.10;;;;;;;19.81;49.98;96318.13;13246787;22;20044;-44
2022/12/07 18:28:39;;;;;;;4.47;1.77;;;;;;;19.81;50.15;96317.34;13246453;22;20078;-49
2022/12/07 18:34:10;;;;;;;4.00;1.88;;;;;;;19.78;50.05;96320.72;13246362;22;20014;-46
2022/12/07 18:39:30;;;;;;;3.97;1.80;;;;;;;19.76;50.13;96321.06;13246208;22;20315;-49
2022/12/07 18:44:49;;;;;;;3.13;1.88;;;;;;;19.75;50.33;96324.88;13267496;22;20017;-46
2022/12/07 18:50:09;;;;;;;3.97;1.85;;;;;;;19.74;50.25;96324.09;13246093;22;20021;-46
2022/12/07 18:55:32;;;;;;;3.60;1.70;;;;;;;19.73;49.85;96329.84;13266833;22;20412;-46
2022/12/07 19:00:54;;;;;;;4.80;1.90;;;;;;;19.71;49.98;96327.47;13244995;22;20021;-45
2022/12/07 19:45:48;;;;;;;7.25;3.25;;;;;;;19.72;50.20;96307.44;13243147;22;20429;-46
2022/12/07 19:51:09;;;;;;;6.63;2.95;;;;;;;19.68;50.19;96308.41;13245252;22;20375;-45
2022/12/07 19:56:29;;;;;;;8.25;2.60;;;;;;;19.64;50.15;96315.59;13245275;22;20010;-46
2022/12/07 20:01:49;;;;;;;4.75;2.42;;;;;;;19.61;50.22;96319.78;13245085;22;20048;-45
2022/12/07 20:07:10;;;;;;;5.43;2.45;;;;;;;19.58;50.24;96312.34;13247888;22;20024;-45
2022/12/07 20:18:07;;;;;;;4.97;2.53;;;;;;;19.54;50.42;96309.53;13249254;22;20314;-50
2022/12/07 20:23:28;;;;;;;4.82;2.25;;;;;;;19.53;50.51;96302.53;13248777;22;20067;-47
2022/12/07 20:28:48;;;;;;;4.55;2.28;;;;;;;19.52;50.47;96302.88;13248680;22;20329;-47
2022/12/07 20:34:08;;;;;;;6.20;2.28;;;;;;;19.50;49.77;96299.72;13249308;22;20110;-47
2022/12/07 21:09:50;;;;;;;5.43;2.45;;;;;;;19.33;51.06;96290.69;10534733;23;20466;-45
2022/12/07 21:15:10;;;;;;;5.28;2.10;;;;;;;19.37;50.91;96282.72;10531801;28;20490;-46
2022/12/07 21:20:31;;;;;;;3.10;1.70;;;;;;;19.41;50.60;96285.53;10529606;28;20491;-46
2022/12/07 21:31:29;;;;;;;3.03;1.88;;;;;;;19.43;50.76;96280.59;10256020;22;20096;-57
2022/12/07 21:36:49;;;;;;;4.70;2.30;;;;;;;19.42;50.70;96277.06;10578808;28;20040;-56
2022/12/07 21:53:28;;;;;;;4.28;1.83;;;;;;;19.42;51.08;96287.09;10275711;23;20046;-55
2022/12/07 21:58:48;;;;;;;4.57;2.08;;;;;;;19.41;51.01;96282.84;10283643;28;20410;-54
2022/12/07 22:04:12;;;;;;;4.38;2.00;;;;;;;19.41;51.09;96293.66;10296545;28;20417;-56
2022/12/07 22:09:31;;;;;;;4.07;2.10;;;;;;;19.40;51.13;96290.13;10285447;28;20048;-56
2022/12/07 22:15:06;;;;;;;4.97;2.00;;;;;;;19.40;51.19;96287.44;10258591;28;20128;-56
2022/12/07 22:20:25;;;;;;;3.38;1.90;;;;;;;19.39;51.22;96302.06;10256776;28;20118;-54
2022/12/07 22:25:45;;;;;;;3.70;1.90;;;;;;;19.38;51.29;96295.09;10258337;28;20048;-56
2022/12/07 22:31:05;;;;;;;3.92;2.08;;;;;;;19.37;51.32;96288.13;10259269;28;20066;-56
2022/12/07 22:36:27;;;;;;;4.03;2.17;;;;;;;19.37;51.29;96290.81;10259102;28;20431;-55
2022/12/07 22:41:46;;;;;;;4.07;2.13;;;;;;;19.34;51.41;96276.06;10255698;28;20512;-57
2022/12/07 22:47:05;;;;;;;3.25;2.00;;;;;;;19.34;51.43;96272.56;10257015;28;20051;-56
2022/12/07 22:52:25;;;;;;;3.60;1.77;;;;;;;19.33;51.40;96271.00;10255090;28;20434;-56
2022/12/07 22:57:44;;;;;;;3.92;2.03;;;;;;;19.33;51.40;96276.41;10271895;28;20451;-56
2022/12/07 23:03:03;;;;;;;1.95;1.67;;;;;;;19.33;51.47;96271.00;10258502;28;20113;-56
2022/12/07 23:08:23;;;;;;;2.95;2.10;;;;;;;19.30;51.56;96263.56;10267545;28;20071;-55
2022/12/07 23:13:42;;;;;;;6.03;2.00;;;;;;;19.30;51.63;96260.88;10271498;28;20062;-56
2022/12/07 23:19:01;;;;;;;2.83;1.65;;;;;;;19.29;51.70;96253.91;10258882;28;20076;-56
2022/12/07 23:24:21;;;;;;;3.78;1.77;;;;;;;19.27;51.71;96251.53;10254441;28;20566;-56
2022/12/07 23:29:40;;;;;;;3.65;1.77;;;;;;;19.26;51.75;96244.53;10257284;28;20059;-54
2022/12/07 23:35:00;;;;;;;4.35;2.03;;;;;;;19.24;51.58;96235.97;10267126;28;20522;-56
2022/12/07 23:40:19;;;;;;;2.85;1.40;;;;;;;19.24;51.49;96243.31;10269675;28;20414;-56
2022/12/07 23:45:38;;;;;;;2.33;1.77;;;;;;;19.23;51.50;96239.00;10264799;28;20089;-56
2022/12/07 23:50:58;;;;;;;3.10;1.90;;;;;;;19.21;51.48;96242.06;10243169;28;20074;-56
2022/12/07 23:56:23;;;;;;;1.92;1.60;;;;;;;19.21;51.51;96236.66;10258378;28;20106;-57
